Portada
METAR-TAF:

METAR-TAF

Aeroports :

Garrison Municipal Airport

Garrison, Dakota del Nord, Estats Units d'Amèrica

latitud: 47-38-45N, longitud: 101-26-22W, altitud: 582 m

Observació

L'informe es va fer fa 58 minuts, a les 15:52 UTC
Vent 3 kt del Sud
Temperatura -4°C
Humitat 100%
Pressió 1015 hPa

METAR: KN60 281552Z AUTO 17003KT M04/M04 A2996 RMK AO1 SLP175 T10441044

Hora: 10:50 (16:50 UTC)


TAF: manca

Observacions i pronòstics meteorològics de més de 4000 aeroports (METAR i TAF).

Les estacions disponibles són els punts grocs i vermells al mapa.

Posi el ratolí al punt desitjat per veure el nom de l'estació.

Feu clic per veure les observacions i els pronòstics meteorològics.

Per canviar el mapa: feu clic els botons verds amb una creu de color negre per apropar; al botó verd amb un guió per allunyar la imatge; o en les fletxes verdes per a mapes adjacents.


METAR-TAF: